createdAt,value
2023-05-19T00:01:18.753Z,9.47
2023-05-19T00:03:55.526Z,9.49
2023-05-19T00:06:27.021Z,9.51
2023-05-19T00:09:30.475Z,9.53
2023-05-19T00:12:04.367Z,9.54
2023-05-19T00:14:36.218Z,9.54
2023-05-19T00:17:05.045Z,9.56
2023-05-19T00:19:38.201Z,9.57
2023-05-19T00:22:06.310Z,9.58
2023-05-19T00:24:34.896Z,9.59
2023-05-19T00:27:02.836Z,9.60
2023-05-19T00:30:09.028Z,9.61
2023-05-19T00:33:02.748Z,9.63
2023-05-19T00:35:33.240Z,9.62
2023-05-19T00:38:01.290Z,9.63
2023-05-19T00:40:35.365Z,9.66
2023-05-19T00:43:05.701Z,9.68
2023-05-19T00:45:34.286Z,9.67
2023-05-19T00:48:02.377Z,9.66
2023-05-19T00:50:31.030Z,9.67
2023-05-19T00:53:04.715Z,9.68
2023-05-19T00:55:40.500Z,9.70
2023-05-19T00:58:11.029Z,9.70
2023-05-19T01:00:39.969Z,9.69
2023-05-19T01:03:11.438Z,9.68
2023-05-19T01:05:44.922Z,9.68
2023-05-19T01:08:13.785Z,9.68
2023-05-19T01:10:41.798Z,9.68
2023-05-19T01:13:09.749Z,9.71
2023-05-19T01:24:38.740Z,9.68
2023-05-19T01:32:27.770Z,9.69
2023-05-19T01:35:02.253Z,9.67
2023-05-19T01:37:31.551Z,9.65
2023-05-19T01:40:00.156Z,9.66
2023-05-19T01:42:30.249Z,9.66
2023-05-19T01:45:01.427Z,9.64
2023-05-19T01:47:30.665Z,9.64
2023-05-19T01:49:59.141Z,9.64
2023-05-19T01:52:27.184Z,9.62
2023-05-19T01:54:55.766Z,9.61
2023-05-19T01:57:35.626Z,9.62
2023-05-19T02:00:47.617Z,9.60
2023-05-19T02:04:32.512Z,9.59
2023-05-19T02:08:06.355Z,9.58
2023-05-19T02:11:04.578Z,9.56
2023-05-19T02:18:00.481Z,9.55
2023-05-19T02:20:31.965Z,9.56
2023-05-19T02:23:00.529Z,9.57
2023-05-19T02:25:28.483Z,9.59
2023-05-19T02:27:58.626Z,9.60
2023-05-19T02:30:26.539Z,9.62
2023-05-19T02:32:54.601Z,9.62
2023-05-19T02:35:28.153Z,9.60
2023-05-19T02:37:59.139Z,9.61
2023-05-19T02:40:27.020Z,9.60
2023-05-19T02:47:01.114Z,9.58
2023-05-19T02:49:43.062Z,9.59
2023-05-19T02:52:12.196Z,9.61
2023-05-19T02:54:40.380Z,9.62
2023-05-19T02:57:08.933Z,9.62
2023-05-19T02:59:37.525Z,9.63
2023-05-19T03:02:05.481Z,9.62
2023-05-19T03:04:59.867Z,9.62
2023-05-19T03:07:27.959Z,9.60
2023-05-19T03:09:55.865Z,9.62
2023-05-19T03:12:23.777Z,9.62
2023-05-19T03:14:58.343Z,9.64
2023-05-19T03:17:26.361Z,9.65
2023-05-19T03:20:26.509Z,9.67
2023-05-19T03:26:35.650Z,9.70
2023-05-19T03:29:32.896Z,9.69
2023-05-19T03:32:06.079Z,9.69
2023-05-19T03:38:39.631Z,9.73
2023-05-19T03:41:56.655Z,9.74
2023-05-19T03:44:27.192Z,9.74
2023-05-19T03:46:55.753Z,9.75
2023-05-19T03:49:24.277Z,9.78
2023-05-19T03:51:52.210Z,9.80
2023-05-19T03:58:10.444Z,9.79
2023-05-19T04:04:42.110Z,9.77
2023-05-19T04:07:10.231Z,9.76
2023-05-19T04:09:45.675Z,9.76
2023-05-19T04:12:13.594Z,9.75
2023-05-19T04:14:47.394Z,9.73
2023-05-19T04:17:15.543Z,9.72
2023-05-19T04:27:58.015Z,9.59
2023-05-19T04:30:35.717Z,9.57
2023-05-19T04:33:04.986Z,9.60
2023-05-19T04:35:33.623Z,9.65
2023-05-19T04:38:01.831Z,9.69
2023-05-19T04:40:36.293Z,9.73
2023-05-19T04:43:09.575Z,9.79
2023-05-19T04:45:42.748Z,9.86
2023-05-19T04:48:18.509Z,9.93
2023-05-19T04:50:48.886Z,10.01
2023-05-19T04:53:17.991Z,10.09
2023-05-19T04:55:52.073Z,10.12
2023-05-19T04:58:33.339Z,10.15
2023-05-19T05:01:09.139Z,10.20
2023-05-19T05:04:11.158Z,10.22
2023-05-19T05:06:42.583Z,10.26
2023-05-19T05:09:52.562Z,10.31
2023-05-19T05:12:44.052Z,10.36
2023-05-19T05:15:15.160Z,10.36
2023-05-19T05:17:44.101Z,10.34
2023-05-19T05:20:32.002Z,10.33
2023-05-19T05:23:03.167Z,10.36
2023-05-19T05:25:33.915Z,10.41
2023-05-19T05:28:05.397Z,10.46
2023-05-19T05:31:03.988Z,10.57
2023-05-19T05:33:32.065Z,10.69
2023-05-19T05:36:00.165Z,10.74
2023-05-19T05:41:20.478Z,10.67
2023-05-19T05:43:48.499Z,10.66
2023-05-19T05:46:17.582Z,10.63
2023-05-19T05:48:45.897Z,10.65
2023-05-19T05:51:17.279Z,10.64
2023-05-19T05:54:36.135Z,10.64
2023-05-19T06:01:26.653Z,10.67
2023-05-19T06:04:44.917Z,10.71
2023-05-19T06:07:45.615Z,10.75
2023-05-19T06:13:48.523Z,10.71
2023-05-19T06:16:17.159Z,10.72
2023-05-19T06:18:45.163Z,10.75
2023-05-19T06:21:41.051Z,10.77
2023-05-19T06:24:09.938Z,10.83
2023-05-19T06:26:38.006Z,10.90
2023-05-19T06:29:06.474Z,10.98
2023-05-19T06:31:34.945Z,11.04
2023-05-19T06:38:18.744Z,11.01
2023-05-19T06:40:49.506Z,11.04
2023-05-19T06:43:18.017Z,11.08
2023-05-19T06:45:46.351Z,11.13
2023-05-19T06:48:14.243Z,11.19
2023-05-19T06:50:47.085Z,11.22
2023-05-19T06:53:18.985Z,11.29
2023-05-19T06:55:58.725Z,11.37
2023-05-19T06:58:41.705Z,11.33
2023-05-19T07:14:06.243Z,11.25
2023-05-19T07:17:44.877Z,11.25
2023-05-19T07:20:18.702Z,11.29
2023-05-19T07:26:16.855Z,11.40
2023-05-19T07:29:30.449Z,11.39
2023-05-19T07:31:58.778Z,11.35
2023-05-19T07:34:30.730Z,11.35
2023-05-19T07:36:58.754Z,11.37
2023-05-19T07:39:29.838Z,11.37
2023-05-19T07:42:00.703Z,11.37
2023-05-19T07:48:10.111Z,11.41
2023-05-19T07:54:38.290Z,11.46
2023-05-19T07:57:16.489Z,11.54
2023-05-19T08:00:21.510Z,11.62
2023-05-19T08:02:54.904Z,11.64
2023-05-19T08:05:26.773Z,11.63
2023-05-19T08:07:54.700Z,11.68
2023-05-19T08:10:24.951Z,11.72
2023-05-19T08:12:53.627Z,11.80
2023-05-19T08:15:24.668Z,11.89
2023-05-19T08:17:53.703Z,11.95
2023-05-19T08:20:44.769Z,11.99
2023-05-19T08:23:17.213Z,12.07
2023-05-19T08:25:46.631Z,12.07
2023-05-19T08:28:14.612Z,12.00
2023-05-19T08:30:42.671Z,12.02
2023-05-19T08:33:11.053Z,12.05
2023-05-19T08:35:43.267Z,12.04
2023-05-19T08:38:11.742Z,12.08
2023-05-19T08:41:11.693Z,12.08
2023-05-19T08:43:51.342Z,12.05
2023-05-19T08:46:21.874Z,11.97
2023-05-19T08:49:07.871Z,11.94
2023-05-19T08:51:52.112Z,11.91
2023-05-19T08:58:09.469Z,11.95
2023-05-19T09:00:40.158Z,11.99
2023-05-19T09:05:52.074Z,12.00
2023-05-19T09:08:25.314Z,12.02
2023-05-19T09:10:53.488Z,12.04
2023-05-19T09:13:23.245Z,12.10
2023-05-19T09:15:56.454Z,12.20
2023-05-19T09:18:26.848Z,12.24
2023-05-19T09:21:00.467Z,12.29
2023-05-19T09:23:31.865Z,12.38
2023-05-19T09:26:27.480Z,12.45
2023-05-19T09:28:59.250Z,12.42
2023-05-19T09:31:33.406Z,12.40
2023-05-19T09:34:01.821Z,12.45
2023-05-19T09:36:31.283Z,12.52
2023-05-19T09:39:04.782Z,12.50
2023-05-19T09:41:33.370Z,12.52
2023-05-19T09:44:01.263Z,12.60
2023-05-19T09:46:30.448Z,12.71
2023-05-19T09:49:03.544Z,12.76
2023-05-19T09:55:03.193Z,12.89
2023-05-19T09:57:40.810Z,12.90
2023-05-19T10:00:45.362Z,12.93
2023-05-19T10:03:16.712Z,12.93
2023-05-19T10:05:45.251Z,12.91
2023-05-19T10:08:14.700Z,12.90
2023-05-19T10:10:42.812Z,12.92
2023-05-19T10:13:12.077Z,12.94
2023-05-19T10:15:57.210Z,12.97
2023-05-19T10:19:00.239Z,13.00
2023-05-19T10:21:29.919Z,12.98
2023-05-19T10:23:57.755Z,12.97
2023-05-19T10:26:27.074Z,12.95
2023-05-19T10:28:58.745Z,12.96
2023-05-19T10:31:35.213Z,12.98
2023-05-19T10:34:23.511Z,12.99
2023-05-19T10:37:13.062Z,13.03
2023-05-19T10:39:43.865Z,13.06
2023-05-19T10:42:21.448Z,13.12
2023-05-19T10:45:20.650Z,13.22
2023-05-19T10:47:52.459Z,13.34
2023-05-19T10:50:22.190Z,13.37
2023-05-19T10:52:55.893Z,13.33
2023-05-19T10:55:59.202Z,13.36
2023-05-19T10:59:00.346Z,13.33
2023-05-19T11:01:35.197Z,13.33
2023-05-19T11:04:09.245Z,13.27
2023-05-19T11:06:43.628Z,13.25
2023-05-19T11:09:40.024Z,13.21
2023-05-19T11:12:10.669Z,13.23
2023-05-19T11:14:41.278Z,13.20
2023-05-19T11:17:17.648Z,13.16
2023-05-19T11:20:05.190Z,13.20
2023-05-19T11:22:44.039Z,13.24
2023-05-19T11:25:11.897Z,13.30
2023-05-19T11:27:40.513Z,13.43
2023-05-19T11:30:17.875Z,13.52
2023-05-19T11:33:17.076Z,13.57
2023-05-19T11:35:50.573Z,13.58
2023-05-19T11:38:21.951Z,13.60
2023-05-19T11:40:54.270Z,13.56
2023-05-19T11:43:26.441Z,13.52
2023-05-19T11:45:56.063Z,13.47
2023-05-19T11:48:25.458Z,13.47
2023-05-19T11:51:00.215Z,13.42
2023-05-19T11:53:33.241Z,13.36
2023-05-19T11:56:05.627Z,13.29
2023-05-19T11:58:33.614Z,13.31
2023-05-19T12:01:05.019Z,13.38
2023-05-19T12:03:40.937Z,13.49
2023-05-19T12:06:17.576Z,13.61
2023-05-19T12:08:46.015Z,13.67
2023-05-19T12:11:14.674Z,13.70
2023-05-19T12:13:42.924Z,13.68
2023-05-19T12:16:11.774Z,13.70
2023-05-19T12:18:42.551Z,13.73
2023-05-19T12:21:10.744Z,13.80
2023-05-19T12:23:39.186Z,13.96
2023-05-19T12:26:07.889Z,14.15
2023-05-19T12:28:36.820Z,14.31
2023-05-19T12:31:05.142Z,14.41
2023-05-19T12:33:35.687Z,14.47
2023-05-19T12:36:05.166Z,14.50
2023-05-19T12:38:34.232Z,14.51
2023-05-19T12:41:06.515Z,14.49
2023-05-19T12:43:34.729Z,14.47
2023-05-19T12:46:13.519Z,14.39
2023-05-19T12:48:44.184Z,14.33
2023-05-19T12:51:26.728Z,14.27
2023-05-19T12:53:54.603Z,14.20
2023-05-19T12:56:27.075Z,14.17
2023-05-19T12:58:55.509Z,14.13
2023-05-19T13:01:26.705Z,14.12
2023-05-19T13:03:54.813Z,14.09
2023-05-19T13:06:22.947Z,14.04
2023-05-19T13:08:54.295Z,13.96
2023-05-19T13:11:25.267Z,13.90
2023-05-19T13:13:53.063Z,13.86
2023-05-19T13:16:20.863Z,13.80
2023-05-19T13:18:48.758Z,13.77
2023-05-19T13:21:20.229Z,13.73
2023-05-19T13:23:48.021Z,13.71
2023-05-19T13:26:18.283Z,13.67
2023-05-19T13:28:48.417Z,13.67
2023-05-19T13:31:16.229Z,13.67
2023-05-19T13:33:44.191Z,13.71
2023-05-19T13:36:15.001Z,13.74
2023-05-19T13:38:45.088Z,13.76
2023-05-19T13:41:13.865Z,13.74
2023-05-19T13:43:43.223Z,13.73
2023-05-19T13:46:11.101Z,13.72
2023-05-19T13:48:39.437Z,13.70
2023-05-19T13:51:07.163Z,13.71
2023-05-19T13:53:34.951Z,13.74
2023-05-19T13:56:02.879Z,13.77
2023-05-19T13:58:30.743Z,13.75
2023-05-19T14:01:00.177Z,13.74
2023-05-19T14:03:28.786Z,13.74
2023-05-19T14:05:56.640Z,13.77
2023-05-19T14:08:24.474Z,13.79
2023-05-19T14:10:52.574Z,13.79
2023-05-19T14:13:32.535Z,13.76
2023-05-19T14:16:03.325Z,13.72
2023-05-19T14:18:32.619Z,13.70
2023-05-19T14:21:00.601Z,13.71
2023-05-19T14:23:30.429Z,13.74
2023-05-19T14:25:58.336Z,13.74
2023-05-19T14:28:26.309Z,13.76
2023-05-19T14:30:54.302Z,13.78
2023-05-19T14:33:22.590Z,13.78
2023-05-19T14:35:50.614Z,13.77
2023-05-19T14:38:18.648Z,13.71
2023-05-19T14:40:48.516Z,13.67
2023-05-19T14:43:16.364Z,13.63
2023-05-19T14:45:45.684Z,13.55
2023-05-19T14:48:13.773Z,13.50
2023-05-19T14:50:41.762Z,13.47
2023-05-19T14:53:09.656Z,13.43
2023-05-19T14:55:37.503Z,13.41
2023-05-19T14:58:15.874Z,13.41
2023-05-19T15:00:53.158Z,13.39
2023-05-19T15:03:23.336Z,13.38
2023-05-19T15:05:51.090Z,13.38
2023-05-19T15:08:18.804Z,13.38
2023-05-19T15:10:50.479Z,13.40
2023-05-19T15:13:19.155Z,13.41
2023-05-19T15:15:46.997Z,13.42
2023-05-19T15:18:18.890Z,13.42
2023-05-19T15:20:46.756Z,13.39
2023-05-19T15:23:14.681Z,13.38
2023-05-19T15:25:42.712Z,13.36
2023-05-19T15:28:10.863Z,13.34
2023-05-19T15:30:40.111Z,13.35
2023-05-19T15:33:08.649Z,13.34
2023-05-19T15:35:36.479Z,13.34
2023-05-19T15:38:06.453Z,13.33
2023-05-19T15:40:34.449Z,13.32
2023-05-19T15:43:02.441Z,13.33
2023-05-19T15:45:30.814Z,13.32
2023-05-19T15:47:59.113Z,13.30
2023-05-19T15:50:27.025Z,13.27
2023-05-19T15:52:54.778Z,13.25
2023-05-19T15:55:22.555Z,13.25
2023-05-19T15:57:50.350Z,13.26
2023-05-19T16:00:18.774Z,13.28
2023-05-19T16:02:46.690Z,13.27
2023-05-19T16:05:14.692Z,13.25
2023-05-19T16:07:42.587Z,13.23
2023-05-19T16:10:10.676Z,13.24
2023-05-19T16:12:38.471Z,13.24
2023-05-19T16:15:06.774Z,13.24
2023-05-19T16:17:35.438Z,13.24
2023-05-19T16:20:04.054Z,13.21
2023-05-19T16:22:31.990Z,13.20
2023-05-19T16:24:59.790Z,13.20
2023-05-19T16:27:27.546Z,13.23
2023-05-19T16:29:55.526Z,13.23
2023-05-19T16:32:23.967Z,13.24
2023-05-19T16:34:52.304Z,13.27
2023-05-19T16:37:20.209Z,13.29
2023-05-19T16:39:48.543Z,13.29
2023-05-19T16:42:16.281Z,13.29
2023-05-19T16:44:44.094Z,13.27
2023-05-19T16:47:12.422Z,13.24
2023-05-19T16:49:41.072Z,13.22
2023-05-19T16:52:08.911Z,13.20
2023-05-19T16:54:37.480Z,13.18
2023-05-19T16:57:05.530Z,13.17
2023-05-19T16:59:33.414Z,13.14
2023-05-19T17:02:04.689Z,13.11
2023-05-19T17:04:35.439Z,13.08
2023-05-19T17:07:03.400Z,13.06
2023-05-19T17:09:31.510Z,13.05
2023-05-19T17:11:59.337Z,13.04
2023-05-19T17:14:27.382Z,13.02
2023-05-19T17:16:56.002Z,13.01
2023-05-19T17:19:24.663Z,13.00
2023-05-19T17:21:52.553Z,12.99
2023-05-19T17:24:20.372Z,12.98
2023-05-19T17:26:48.172Z,12.96
2023-05-19T17:29:16.117Z,12.94
2023-05-19T17:31:44.507Z,12.93
2023-05-19T17:34:12.922Z,12.92
2023-05-19T17:36:40.785Z,12.90
2023-05-19T17:39:08.540Z,12.88
2023-05-19T17:41:38.850Z,12.86
2023-05-19T17:44:06.971Z,12.84
2023-05-19T17:46:36.253Z,12.83
2023-05-19T17:49:13.177Z,12.81
2023-05-19T17:51:41.317Z,12.80
2023-05-19T17:54:09.355Z,12.80
2023-05-19T17:56:46.601Z,12.77
2023-05-19T17:59:17.431Z,12.77
2023-05-19T18:01:45.871Z,12.76
2023-05-19T18:04:17.330Z,12.75
2023-05-19T18:06:47.932Z,12.74
2023-05-19T18:09:19.088Z,12.72
2023-05-19T18:11:47.733Z,12.68
2023-05-19T18:14:15.671Z,12.66
2023-05-19T18:16:43.728Z,12.63
2023-05-19T18:19:11.713Z,12.61
2023-05-19T18:21:44.655Z,12.58
2023-05-19T18:24:13.102Z,12.56
2023-05-19T18:26:43.970Z,12.53
2023-05-19T18:29:14.983Z,12.50
2023-05-19T18:31:43.763Z,12.48
2023-05-19T18:34:17.185Z,12.48
2023-05-19T18:36:49.219Z,12.46
2023-05-19T18:39:17.319Z,12.43
2023-05-19T18:41:45.947Z,12.39
2023-05-19T18:44:14.089Z,12.38
2023-05-19T18:46:44.674Z,12.37
2023-05-19T18:49:15.808Z,12.38
2023-05-19T18:51:43.803Z,12.35
2023-05-19T18:54:32.818Z,12.35
2023-05-19T18:57:09.001Z,12.34
2023-05-19T18:59:38.089Z,12.32
2023-05-19T19:02:07.203Z,12.33
2023-05-19T19:04:42.713Z,12.33
2023-05-19T19:07:12.999Z,12.33
2023-05-19T19:09:43.831Z,12.33
2023-05-19T19:12:12.833Z,12.33
2023-05-19T19:14:44.960Z,12.33
2023-05-19T19:17:28.595Z,12.32
2023-05-19T19:19:57.947Z,12.32
2023-05-19T19:22:32.240Z,12.33
2023-05-19T19:25:00.405Z,12.32
2023-05-19T19:27:31.157Z,12.30
2023-05-19T19:30:02.202Z,12.29
2023-05-19T19:32:33.810Z,12.27
2023-05-19T19:35:08.138Z,12.27
2023-05-19T19:37:36.172Z,12.27
2023-05-19T19:40:11.816Z,12.27
2023-05-19T19:42:46.323Z,12.27
2023-05-19T19:45:15.761Z,12.27
2023-05-19T19:47:49.801Z,12.27
2023-05-19T19:50:17.973Z,12.27
2023-05-19T19:52:55.150Z,12.24
2023-05-19T19:55:24.435Z,12.23
2023-05-19T19:57:52.858Z,12.20
2023-05-19T20:00:20.987Z,12.19
2023-05-19T20:03:03.727Z,12.18
2023-05-19T20:05:53.286Z,12.17
2023-05-19T20:08:22.573Z,12.14
2023-05-19T20:11:11.943Z,12.14
2023-05-19T20:13:48.005Z,12.14
2023-05-19T20:16:16.486Z,12.12
2023-05-19T20:18:44.848Z,12.11
2023-05-19T20:21:12.717Z,12.10
2023-05-19T20:23:40.830Z,12.10
2023-05-19T20:26:12.510Z,12.08
2023-05-19T20:28:41.681Z,12.07
2023-05-19T20:31:10.444Z,12.06
2023-05-19T20:33:38.536Z,12.05
2023-05-19T20:36:08.385Z,12.05
2023-05-19T20:38:36.401Z,12.06
2023-05-19T20:41:04.771Z,12.04
2023-05-19T20:43:33.327Z,12.05
2023-05-19T20:46:03.419Z,12.05
2023-05-19T20:48:31.684Z,12.04
2023-05-19T20:50:59.443Z,12.05
2023-05-19T20:53:27.313Z,12.03
2023-05-19T20:55:58.272Z,12.01
2023-05-19T20:58:30.430Z,12.00
2023-05-19T21:00:58.806Z,12.01
2023-05-19T21:03:27.367Z,12.00
2023-05-19T21:05:56.127Z,12.01
2023-05-19T21:08:25.627Z,12.01
2023-05-19T21:10:53.905Z,12.01
2023-05-19T21:13:22.253Z,12.00
2023-05-19T21:15:49.959Z,11.99
2023-05-19T21:18:17.757Z,12.00
2023-05-19T21:20:45.527Z,12.00
2023-05-19T21:23:13.311Z,12.00
2023-05-19T21:25:42.938Z,12.01
2023-05-19T21:28:14.567Z,12.01
2023-05-19T21:30:43.706Z,12.01
2023-05-19T21:33:11.801Z,12.01
2023-05-19T21:35:39.735Z,12.01
2023-05-19T21:38:22.128Z,12.01
2023-05-19T21:40:53.026Z,11.99
2023-05-19T21:43:21.936Z,11.99
2023-05-19T21:45:50.024Z,12.00
2023-05-19T21:48:18.030Z,12.01
2023-05-19T21:50:45.811Z,12.01
2023-05-19T21:53:13.631Z,12.01
2023-05-19T21:55:42.112Z,12.00
2023-05-19T21:58:10.975Z,11.98
2023-05-19T22:00:38.973Z,11.98
2023-05-19T22:03:06.911Z,11.99
2023-05-19T22:05:35.507Z,11.98
2023-05-19T22:08:03.703Z,11.96
2023-05-19T22:10:33.860Z,11.95
2023-05-19T22:13:01.895Z,11.95
2023-05-19T22:15:29.716Z,11.95
2023-05-19T22:17:57.699Z,11.95
2023-05-19T22:20:25.611Z,11.93
2023-05-19T22:22:53.465Z,11.92
2023-05-19T22:25:21.361Z,11.91
2023-05-19T22:27:49.063Z,11.91
2023-05-19T22:30:17.351Z,11.90
2023-05-19T22:32:45.409Z,11.90
2023-05-19T22:35:14.164Z,11.90
2023-05-19T22:37:41.896Z,11.90
2023-05-19T22:40:09.962Z,11.92
2023-05-19T22:42:37.769Z,11.93
2023-05-19T22:45:06.510Z,11.93
2023-05-19T22:47:34.387Z,11.93
2023-05-19T22:50:02.948Z,11.92
2023-05-19T22:52:30.847Z,11.91
2023-05-19T22:55:01.113Z,11.90
2023-05-19T22:57:29.012Z,11.90
2023-05-19T22:59:57.113Z,11.90
2023-05-19T23:02:25.638Z,11.90
2023-05-19T23:04:54.151Z,11.90
2023-05-19T23:07:21.904Z,11.91
2023-05-19T23:09:50.070Z,11.91
2023-05-19T23:12:17.850Z,11.91
2023-05-19T23:14:46.667Z,11.90
2023-05-19T23:17:18.456Z,11.89
2023-05-19T23:19:46.271Z,11.89
2023-05-19T23:22:14.232Z,11.89
2023-05-19T23:24:42.086Z,11.89
2023-05-19T23:27:10.342Z,11.90
2023-05-19T23:29:38.137Z,11.90
2023-05-19T23:32:06.736Z,11.88
2023-05-19T23:34:34.923Z,11.87
2023-05-19T23:37:03.037Z,11.86
2023-05-19T23:39:31.279Z,11.87
2023-05-19T23:41:59.209Z,11.87
2023-05-19T23:44:27.624Z,11.87
2023-05-19T23:46:55.460Z,11.87
2023-05-19T23:49:23.258Z,11.88
2023-05-19T23:51:51.460Z,11.89
2023-05-19T23:54:19.742Z,11.89
2023-05-19T23:56:48.080Z,11.89
2023-05-19T23:59:15.903Z,11.90
